createdAt,value
2017-07-30T00:01:57.444Z,98233.25
2017-07-30T00:04:24.884Z,98237.53
2017-07-30T00:06:52.342Z,98232.07
2017-07-30T00:09:19.828Z,98230.51
2017-07-30T00:11:47.270Z,98223.48
2017-07-30T00:14:14.737Z,98212.06
2017-07-30T00:16:42.206Z,98209.75
2017-07-30T00:19:09.648Z,98209.84
2017-07-30T00:21:37.092Z,98213.30
2017-07-30T00:24:04.561Z,98213.62
2017-07-30T00:26:32.005Z,98216.80
2017-07-30T00:28:59.476Z,98215.22
2017-07-30T00:31:26.918Z,98217.33
2017-07-30T00:33:54.359Z,98217.36
2017-07-30T00:36:21.845Z,98211.04
2017-07-30T00:38:49.302Z,98209.00
2017-07-30T00:41:16.781Z,98206.92
2017-07-30T00:43:44.217Z,98199.88
2017-07-30T00:46:11.671Z,98201.36
2017-07-30T00:48:39.186Z,98200.68
2017-07-30T00:51:06.627Z,98203.50
2017-07-30T00:53:34.100Z,98198.58
2017-07-30T00:56:01.545Z,98199.25
2017-07-30T00:58:28.990Z,98195.37
2017-07-30T01:00:56.474Z,98193.69
2017-07-30T01:03:23.935Z,98190.61
2017-07-30T01:05:51.380Z,98194.41
2017-07-30T01:08:19.061Z,98197.35
2017-07-30T01:10:46.510Z,98206.74
2017-07-30T01:13:14.573Z,98203.25
2017-07-30T01:15:42.052Z,98203.64
2017-07-30T01:18:09.501Z,98197.31
2017-07-30T01:20:37.004Z,98197.93
2017-07-30T01:23:04.481Z,98203.28
2017-07-30T01:25:31.948Z,98194.05
2017-07-30T01:27:59.407Z,98183.23
2017-07-30T01:30:26.853Z,98182.39
2017-07-30T01:32:54.328Z,98178.08
2017-07-30T01:35:21.778Z,98181.38
2017-07-30T01:37:49.263Z,98185.78
2017-07-30T01:40:16.713Z,98187.20
2017-07-30T01:42:44.161Z,98184.78
2017-07-30T01:45:11.635Z,98183.67
2017-07-30T01:47:39.088Z,98178.08
2017-07-30T01:50:06.553Z,98179.41
2017-07-30T01:52:34.050Z,98172.73
2017-07-30T01:55:01.497Z,98169.88
2017-07-30T01:57:28.958Z,98166.34
2017-07-30T01:59:56.430Z,98155.39
2017-07-30T02:02:24.140Z,98165.52
2017-07-30T02:04:51.600Z,98159.91
2017-07-30T02:07:19.074Z,98162.23
2017-07-30T02:09:46.536Z,98163.80
2017-07-30T02:12:14.273Z,98166.54
2017-07-30T02:14:41.721Z,98171.63
2017-07-30T02:17:09.174Z,98177.27
2017-07-30T02:19:36.967Z,98177.69
2017-07-30T02:22:04.420Z,98175.85
2017-07-30T02:24:31.868Z,98175.44
2017-07-30T02:26:59.329Z,98176.38
2017-07-30T02:29:26.997Z,98175.85
2017-07-30T02:31:54.453Z,98169.66
2017-07-30T02:34:21.897Z,98167.16
2017-07-30T02:36:49.494Z,98164.22
2017-07-30T02:39:16.942Z,98160.64
2017-07-30T02:41:44.393Z,98167.58
2017-07-30T02:44:11.860Z,98164.89
2017-07-30T02:46:39.316Z,98174.41
2017-07-30T02:49:06.951Z,98173.92
2017-07-30T02:51:34.411Z,98183.05
2017-07-30T02:54:01.880Z,98186.84
2017-07-30T02:56:29.325Z,98194.17
2017-07-30T02:58:56.793Z,98199.57
2017-07-30T03:01:24.260Z,98202.33
2017-07-30T03:03:51.747Z,98199.36
2017-07-30T03:06:19.217Z,98204.09
2017-07-30T03:08:46.663Z,98204.08
2017-07-30T03:11:14.138Z,98200.80
2017-07-30T03:13:41.598Z,98201.50
2017-07-30T03:16:09.068Z,98200.25
2017-07-30T03:18:36.513Z,98192.58
2017-07-30T03:21:03.983Z,98186.52
2017-07-30T03:23:31.462Z,98183.53
2017-07-30T03:25:58.913Z,98181.36
2017-07-30T03:28:26.383Z,98172.34
2017-07-30T03:30:53.834Z,98176.32
2017-07-30T03:33:21.276Z,98162.58
2017-07-30T03:35:48.757Z,98166.89
2017-07-30T03:38:16.205Z,98163.97
2017-07-30T03:40:43.673Z,98171.09
2017-07-30T03:43:11.163Z,98167.81
2017-07-30T03:45:38.609Z,98164.91
2017-07-30T03:48:06.197Z,98161.53
2017-07-30T03:50:33.642Z,98160.84
2017-07-30T03:53:01.093Z,98161.05
2017-07-30T03:55:28.573Z,98167.91
2017-07-30T03:57:56.021Z,98168.73
2017-07-30T04:00:23.472Z,98173.82
2017-07-30T04:02:51.123Z,98168.88
2017-07-30T04:05:18.582Z,98162.09
2017-07-30T04:07:46.032Z,98155.02
2017-07-30T04:10:13.521Z,98156.81
2017-07-30T04:12:40.965Z,98158.81
2017-07-30T04:15:08.414Z,98164.70
2017-07-30T04:17:35.888Z,98167.29
2017-07-30T04:20:03.325Z,98173.04
2017-07-30T04:22:30.976Z,98168.52
2017-07-30T04:24:58.430Z,98171.34
2017-07-30T04:27:25.905Z,98166.72
2017-07-30T04:29:53.353Z,98167.28
2017-07-30T04:32:20.820Z,98162.88
2017-07-30T04:34:48.265Z,98164.11
2017-07-30T04:37:15.728Z,98169.24
2017-07-30T04:39:43.176Z,98163.02
2017-07-30T04:42:10.640Z,98162.51
2017-07-30T04:44:38.147Z,98157.39
2017-07-30T04:47:05.618Z,98165.03
2017-07-30T04:49:33.072Z,98160.82
2017-07-30T04:52:00.535Z,98152.02
2017-07-30T04:54:28.030Z,98148.87
2017-07-30T04:56:55.477Z,98146.83
2017-07-30T04:59:22.937Z,98144.03
2017-07-30T05:01:50.405Z,98152.91
2017-07-30T05:04:17.850Z,98152.42
2017-07-30T05:06:45.317Z,98141.08
2017-07-30T05:09:12.770Z,98137.94
2017-07-30T05:11:40.232Z,98134.77
2017-07-30T05:14:07.711Z,98141.61
2017-07-30T05:16:35.165Z,98145.77
2017-07-30T05:19:02.622Z,98142.59
2017-07-30T05:21:30.088Z,98146.02
2017-07-30T05:23:57.536Z,98140.07
2017-07-30T05:26:25.008Z,98141.02
2017-07-30T05:28:52.465Z,98141.44
2017-07-30T05:31:19.921Z,98146.80
2017-07-30T05:33:47.403Z,98142.31
2017-07-30T05:36:14.868Z,98140.73
2017-07-30T05:38:42.349Z,98129.80
2017-07-30T05:41:09.820Z,98138.14
2017-07-30T05:43:37.533Z,98141.37
2017-07-30T05:46:04.989Z,98137.67
2017-07-30T05:48:32.448Z,98141.28
2017-07-30T05:50:59.913Z,98149.63
2017-07-30T05:53:27.365Z,98149.14
2017-07-30T05:55:55.280Z,98148.96
2017-07-30T05:58:22.732Z,98145.64
2017-07-30T06:00:50.192Z,98145.12
2017-07-30T06:03:17.813Z,98145.55
2017-07-30T06:05:45.272Z,98147.79
2017-07-30T06:08:12.718Z,98152.91
2017-07-30T06:10:40.206Z,98155.66
2017-07-30T06:13:07.661Z,98155.14
2017-07-30T06:15:35.585Z,98155.83
2017-07-30T06:18:03.036Z,98163.50
2017-07-30T06:20:30.493Z,98163.63
2017-07-30T06:22:57.960Z,98166.43
2017-07-30T06:25:25.437Z,98168.98
2017-07-30T06:27:52.925Z,98171.83
2017-07-30T06:30:21.476Z,98171.06
2017-07-30T06:32:49.325Z,98174.98
2017-07-30T06:35:16.787Z,98177.58
2017-07-30T06:37:44.233Z,98169.92
2017-07-30T06:40:11.717Z,98168.39
2017-07-30T06:42:39.180Z,98163.79
2017-07-30T06:45:06.646Z,98167.25
2017-07-30T06:47:34.128Z,98162.34
2017-07-30T06:50:01.568Z,98156.95
2017-07-30T06:52:29.008Z,98164.73
2017-07-30T06:54:56.777Z,98163.44
2017-07-30T06:57:24.228Z,98156.83
2017-07-30T06:59:51.681Z,98148.50
2017-07-30T07:02:19.149Z,98151.23
2017-07-30T07:04:46.627Z,98156.73
2017-07-30T07:07:14.109Z,98158.67
2017-07-30T07:09:41.564Z,98155.41
2017-07-30T07:12:09.029Z,98145.22
2017-07-30T07:14:36.477Z,98148.23
2017-07-30T07:17:04.221Z,98153.34
2017-07-30T07:19:31.670Z,98155.08
2017-07-30T07:21:59.120Z,98150.19
2017-07-30T07:24:26.584Z,98149.34
2017-07-30T07:26:54.314Z,98152.15
2017-07-30T07:29:21.780Z,98153.27
2017-07-30T07:31:49.220Z,98154.64
2017-07-30T07:34:16.663Z,98150.42
2017-07-30T07:36:44.518Z,98151.17
2017-07-30T07:39:11.960Z,98149.83
2017-07-30T07:41:39.412Z,98149.67
2017-07-30T07:44:06.889Z,98147.51
2017-07-30T07:46:34.332Z,98153.59
2017-07-30T07:49:01.785Z,98153.31
2017-07-30T07:51:29.261Z,98152.18
2017-07-30T07:53:56.717Z,98157.80
2017-07-30T07:56:24.222Z,98158.70
2017-07-30T07:58:51.673Z,98156.05
2017-07-30T08:01:19.685Z,98160.45
2017-07-30T08:03:47.190Z,98153.66
2017-07-30T08:06:14.705Z,98152.91
2017-07-30T08:08:42.150Z,98153.41
2017-07-30T08:11:09.620Z,98156.26
2017-07-30T08:13:37.090Z,98156.25
2017-07-30T08:16:04.937Z,98156.20
2017-07-30T08:18:32.385Z,98154.77
2017-07-30T08:20:59.845Z,98154.28
2017-07-30T08:23:27.333Z,98151.91
2017-07-30T08:25:54.805Z,98159.45
2017-07-30T08:28:22.279Z,98156.84
2017-07-30T08:30:49.724Z,98157.67
2017-07-30T08:33:17.197Z,98160.45
2017-07-30T08:35:44.633Z,98161.09
2017-07-30T08:38:12.202Z,98162.63
2017-07-30T08:40:39.653Z,98160.72
2017-07-30T08:43:07.098Z,98161.23
2017-07-30T08:45:34.578Z,98164.52
2017-07-30T08:48:02.033Z,98163.39
2017-07-30T08:50:29.475Z,98163.52
2017-07-30T08:52:57.359Z,98165.68
2017-07-30T08:55:24.815Z,98167.81
2017-07-30T08:57:52.287Z,98168.09
2017-07-30T09:00:19.992Z,98171.42
2017-07-30T09:02:47.444Z,98167.17
2017-07-30T09:05:14.888Z,98171.04
2017-07-30T09:07:42.356Z,98166.98
2017-07-30T09:10:09.861Z,98167.70
2017-07-30T09:12:37.309Z,98165.80
2017-07-30T09:15:04.756Z,98161.43
2017-07-30T09:17:32.228Z,98160.12
2017-07-30T09:19:59.685Z,98160.00
2017-07-30T09:22:27.465Z,98165.94
2017-07-30T09:24:54.916Z,98156.87
2017-07-30T09:27:22.364Z,98153.79
2017-07-30T09:29:49.847Z,98152.27
2017-07-30T09:32:17.294Z,98150.88
2017-07-30T09:34:44.765Z,98147.89
2017-07-30T09:37:12.217Z,98143.63
2017-07-30T09:39:39.923Z,98148.70
2017-07-30T09:42:07.379Z,98149.17
2017-07-30T09:44:34.833Z,98145.97
2017-07-30T09:47:02.302Z,98150.70
2017-07-30T09:49:30.118Z,98150.47
2017-07-30T09:51:57.564Z,98146.19
2017-07-30T09:54:25.014Z,98149.63
2017-07-30T09:56:52.476Z,98148.80
2017-07-30T09:59:20.268Z,98146.38
2017-07-30T10:01:47.708Z,98142.00
2017-07-30T10:04:15.148Z,98146.91
2017-07-30T10:06:42.613Z,98145.94
2017-07-30T10:09:10.412Z,98144.30
2017-07-30T10:11:37.857Z,98142.45
2017-07-30T10:14:05.316Z,98140.77
2017-07-30T10:16:32.785Z,98138.41
2017-07-30T10:19:00.257Z,98131.51
2017-07-30T10:21:27.713Z,98133.13
2017-07-30T10:23:55.177Z,98128.94
2017-07-30T10:26:22.649Z,98134.64
2017-07-30T10:28:50.097Z,98123.74
2017-07-30T10:31:17.562Z,98126.98
2017-07-30T10:33:45.033Z,98133.31
2017-07-30T10:36:12.774Z,98122.95
2017-07-30T10:38:40.220Z,98121.59
2017-07-30T10:41:07.677Z,98119.91
2017-07-30T10:43:35.145Z,98122.22
2017-07-30T10:46:02.620Z,98115.62
2017-07-30T10:48:30.076Z,98114.11
2017-07-30T10:50:57.646Z,98108.20
2017-07-30T10:53:25.083Z,98115.45
2017-07-30T10:55:52.544Z,98105.69
2017-07-30T10:58:20.009Z,98113.93
2017-07-30T11:00:47.483Z,98102.17
2017-07-30T11:03:14.924Z,98103.94
2017-07-30T11:05:42.369Z,98102.19
2017-07-30T11:08:09.833Z,98096.04
2017-07-30T11:10:37.272Z,98098.95
2017-07-30T11:13:04.972Z,98095.16
2017-07-30T11:15:32.425Z,98096.19
2017-07-30T11:17:59.865Z,98092.19
2017-07-30T11:20:27.670Z,98091.39
2017-07-30T11:22:55.113Z,98082.77
2017-07-30T11:25:22.550Z,98074.79
2017-07-30T11:27:50.033Z,98080.23
2017-07-30T11:30:17.474Z,98076.91
2017-07-30T11:32:44.953Z,98065.78
2017-07-30T11:35:12.404Z,98063.23
2017-07-30T11:37:39.841Z,98062.17
2017-07-30T11:40:07.314Z,98048.77
2017-07-30T11:42:34.757Z,98055.41
2017-07-30T11:45:02.221Z,98063.20
2017-07-30T11:47:29.658Z,98060.38
2017-07-30T11:49:57.252Z,98053.42
2017-07-30T11:52:24.702Z,98060.88
2017-07-30T11:54:52.171Z,98058.67
2017-07-30T11:57:19.647Z,98052.77
2017-07-30T11:59:47.085Z,98048.84
2017-07-30T12:02:14.583Z,98055.73
2017-07-30T12:04:42.027Z,98043.52
2017-07-30T12:07:09.473Z,98044.11
2017-07-30T12:09:36.933Z,98043.39
2017-07-30T12:12:04.377Z,98039.02
2017-07-30T12:14:31.840Z,98030.94
2017-07-30T12:16:59.553Z,98023.69
2017-07-30T12:19:26.989Z,98019.48
2017-07-30T12:21:54.459Z,98012.09
2017-07-30T12:24:21.934Z,98015.12
2017-07-30T12:26:49.396Z,98005.98
2017-07-30T12:29:16.852Z,98007.62
2017-07-30T12:31:44.320Z,98008.83
2017-07-30T12:34:11.777Z,98010.23
2017-07-30T12:36:39.244Z,98000.78
2017-07-30T12:39:06.693Z,97995.72
2017-07-30T12:41:34.164Z,98001.58
2017-07-30T12:44:01.613Z,98001.22
2017-07-30T12:46:29.058Z,98011.73
2017-07-30T12:48:56.535Z,98010.34
2017-07-30T12:51:23.977Z,98009.95
2017-07-30T12:53:51.456Z,98017.50
2017-07-30T12:56:18.910Z,98019.06
2017-07-30T12:58:46.355Z,98028.19
2017-07-30T13:01:13.830Z,98025.77
2017-07-30T13:03:41.304Z,98029.95
2017-07-30T13:06:08.776Z,98030.41
2017-07-30T13:08:36.217Z,98032.89
2017-07-30T13:11:03.680Z,98036.13
2017-07-30T13:13:31.124Z,98029.50
2017-07-30T13:15:58.896Z,98030.41
2017-07-30T13:18:26.341Z,98033.76
2017-07-30T13:20:53.793Z,98027.48
2017-07-30T13:23:21.253Z,98033.42
2017-07-30T13:25:49.021Z,98026.06
2017-07-30T13:28:16.461Z,98018.50
2017-07-30T13:30:43.909Z,98018.16
2017-07-30T13:33:11.375Z,98014.34
2017-07-30T13:35:38.817Z,98011.58
2017-07-30T13:38:06.295Z,98003.70
2017-07-30T13:40:33.743Z,98012.73
2017-07-30T13:43:01.185Z,98010.81
2017-07-30T13:45:28.653Z,98017.81
2017-07-30T13:47:56.102Z,98008.64
2017-07-30T13:50:23.573Z,98008.45
2017-07-30T13:52:51.016Z,98012.30
2017-07-30T13:55:18.869Z,98024.29
2017-07-30T13:57:46.309Z,98011.48
2017-07-30T14:00:13.754Z,98020.55
2017-07-30T14:02:41.261Z,98018.05
2017-07-30T14:05:08.709Z,98014.31
2017-07-30T14:07:36.176Z,98010.48
2017-07-30T14:10:03.619Z,98012.62
2017-07-30T14:12:31.104Z,98011.91
2017-07-30T14:14:58.581Z,98006.27
2017-07-30T14:17:26.025Z,98005.73
2017-07-30T14:19:53.488Z,98017.01
2017-07-30T14:22:20.931Z,98020.52
2017-07-30T14:24:48.374Z,98014.02
2017-07-30T14:27:15.848Z,98007.88
2017-07-30T14:29:43.288Z,98009.39
2017-07-30T14:32:10.728Z,98006.53
2017-07-30T14:34:38.196Z,98008.31
2017-07-30T14:37:05.992Z,98003.13
2017-07-30T14:39:33.445Z,98000.73
2017-07-30T14:42:00.885Z,97999.52
2017-07-30T14:44:28.705Z,98004.61
2017-07-30T14:46:56.156Z,97996.13
2017-07-30T14:49:23.609Z,97989.95
2017-07-30T14:51:51.080Z,97986.31
2017-07-30T14:54:18.523Z,97993.00
2017-07-30T14:56:45.965Z,97981.37
2017-07-30T14:59:13.432Z,97989.53
2017-07-30T15:01:40.880Z,97976.09
2017-07-30T15:04:08.360Z,97977.46
2017-07-30T15:06:35.807Z,97976.55
2017-07-30T15:09:03.266Z,97969.25
2017-07-30T15:11:30.753Z,97967.88
2017-07-30T15:13:58.201Z,97969.48
2017-07-30T15:16:25.962Z,97966.17
2017-07-30T15:18:53.404Z,97968.10
2017-07-30T15:21:20.846Z,97975.17
2017-07-30T15:23:48.340Z,97971.13
2017-07-30T15:26:15.794Z,97967.95
2017-07-30T15:28:43.248Z,97963.13
2017-07-30T15:31:10.720Z,97962.73
2017-07-30T15:33:38.194Z,97957.31
2017-07-30T15:36:05.681Z,97960.45
2017-07-30T15:38:33.137Z,97957.97
2017-07-30T15:41:00.880Z,97957.67
2017-07-30T15:43:28.328Z,97957.22
2017-07-30T15:45:55.778Z,97961.16
2017-07-30T15:48:23.243Z,97963.95
2017-07-30T15:50:50.693Z,97970.09
2017-07-30T15:53:18.159Z,97967.76
2017-07-30T15:55:45.657Z,97973.91
2017-07-30T15:58:13.109Z,97970.93
2017-07-30T16:00:40.567Z,97979.47
2017-07-30T16:03:08.357Z,97977.08
2017-07-30T16:05:35.817Z,97972.38
2017-07-30T16:08:03.273Z,97975.75
2017-07-30T16:10:30.931Z,97970.67
2017-07-30T16:12:58.371Z,97975.84
2017-07-30T16:15:25.816Z,97971.44
2017-07-30T16:17:53.284Z,97970.48
2017-07-30T16:20:20.733Z,97979.20
2017-07-30T16:22:48.218Z,97978.75
2017-07-30T16:25:15.704Z,97979.44
2017-07-30T16:27:43.195Z,97981.76
2017-07-30T16:30:10.646Z,97980.14
2017-07-30T16:32:38.114Z,97989.78
2017-07-30T16:35:05.577Z,97987.82
2017-07-30T16:37:33.049Z,97990.43
2017-07-30T16:40:00.514Z,97980.08
2017-07-30T16:42:27.989Z,97980.06
2017-07-30T16:44:55.462Z,97983.23
2017-07-30T16:47:23.230Z,97978.42
2017-07-30T16:49:50.688Z,97974.69
2017-07-30T16:52:18.136Z,97973.09
2017-07-30T16:54:45.850Z,97970.70
2017-07-30T16:57:13.313Z,97978.78
2017-07-30T16:59:40.759Z,97972.48
2017-07-30T17:02:08.339Z,97976.67
2017-07-30T17:04:35.856Z,97967.52
2017-07-30T17:07:03.874Z,97965.39
2017-07-30T17:09:32.668Z,97967.70
2017-07-30T17:12:00.202Z,97959.73
2017-07-30T17:14:28.737Z,97962.20
2017-07-30T17:16:57.216Z,97960.03
2017-07-30T17:19:24.859Z,97960.56
2017-07-30T17:21:52.362Z,97956.30
2017-07-30T17:24:19.846Z,97957.13
2017-07-30T17:26:47.974Z,97961.17
2017-07-30T17:29:16.321Z,97954.98
2017-07-30T17:31:43.928Z,97957.94
2017-07-30T17:34:11.368Z,97960.91
2017-07-30T17:36:38.825Z,97966.09
2017-07-30T17:39:06.385Z,97960.85
2017-07-30T17:41:35.118Z,97958.80
2017-07-30T17:44:02.776Z,97961.22
2017-07-30T17:46:30.574Z,97956.17
2017-07-30T17:48:58.020Z,97956.58
2017-07-30T17:51:26.117Z,97957.91
2017-07-30T17:53:55.310Z,97973.13
2017-07-30T17:56:22.903Z,97969.73
2017-07-30T17:58:50.653Z,97972.76
2017-07-30T18:01:18.099Z,97978.33
2017-07-30T18:03:46.249Z,97984.23
2017-07-30T18:06:15.442Z,97983.70
2017-07-30T18:08:43.886Z,97981.36
2017-07-30T18:11:11.397Z,97988.00
2017-07-30T18:13:38.874Z,97982.59
2017-07-30T18:16:06.361Z,97995.56
2017-07-30T18:18:34.754Z,98000.98
2017-07-30T18:21:02.334Z,98001.97
2017-07-30T18:23:30.090Z,98004.06
2017-07-30T18:25:57.545Z,98009.80
2017-07-30T18:28:25.631Z,98007.31
2017-07-30T18:30:54.046Z,98003.09
2017-07-30T18:33:21.574Z,98015.56
2017-07-30T18:35:49.023Z,98008.70
2017-07-30T18:38:16.516Z,98011.33
2017-07-30T18:40:44.984Z,98018.97
2017-07-30T18:43:12.550Z,98027.42
2017-07-30T18:45:41.085Z,98027.59
2017-07-30T18:48:09.608Z,98029.92
2017-07-30T18:50:38.545Z,98028.56
2017-07-30T18:53:05.989Z,98036.16
2017-07-30T18:55:33.440Z,98039.27
2017-07-30T18:58:00.902Z,98031.62
2017-07-30T19:00:28.357Z,98040.23
2017-07-30T19:02:55.818Z,98043.48
2017-07-30T19:05:23.263Z,98053.80
2017-07-30T19:07:50.754Z,98052.58
2017-07-30T19:10:18.414Z,98055.70
2017-07-30T19:12:45.861Z,98063.16
2017-07-30T19:15:13.314Z,98069.89
2017-07-30T19:17:40.808Z,98073.90
2017-07-30T19:20:08.255Z,98076.42
2017-07-30T19:22:35.697Z,98071.74
2017-07-30T19:25:03.165Z,98078.77
2017-07-30T19:27:30.746Z,98084.23
2017-07-30T19:29:58.189Z,98083.88
2017-07-30T19:32:26.341Z,98082.03
2017-07-30T19:34:54.084Z,98087.39
2017-07-30T19:37:21.536Z,98087.02
2017-07-30T19:39:49.033Z,98089.82
2017-07-30T19:42:16.518Z,98090.09
2017-07-30T19:44:43.963Z,98097.22
2017-07-30T19:47:11.990Z,98095.09
2017-07-30T19:49:39.472Z,98092.63
2017-07-30T19:52:06.948Z,98101.13
2017-07-30T19:54:34.392Z,98095.72
2017-07-30T19:57:01.837Z,98108.05
2017-07-30T19:59:29.700Z,98114.54
2017-07-30T20:01:58.826Z,98112.44
2017-07-30T20:04:26.292Z,98114.48
2017-07-30T20:06:53.782Z,98109.72
2017-07-30T20:09:21.241Z,98095.69
2017-07-30T20:11:49.326Z,98094.03
2017-07-30T20:14:17.671Z,98091.44
2017-07-30T20:16:45.158Z,98093.19
2017-07-30T20:19:12.625Z,98102.39
2017-07-30T20:21:40.476Z,98110.76
2017-07-30T20:24:08.789Z,98121.95
2017-07-30T20:26:36.393Z,98124.80
2017-07-30T20:29:04.129Z,98123.30
2017-07-30T20:31:31.577Z,98124.30
2017-07-30T20:33:59.241Z,98126.85
2017-07-30T20:36:28.327Z,98129.41
2017-07-30T20:38:55.838Z,98131.05
2017-07-30T20:41:24.954Z,98138.30
2017-07-30T20:43:52.423Z,98148.23
2017-07-30T20:46:20.205Z,98162.66
2017-07-30T20:48:48.709Z,98162.83
2017-07-30T20:51:16.192Z,98166.36
2017-07-30T20:53:43.638Z,98162.15
2017-07-30T20:56:11.111Z,98163.06
2017-07-30T20:58:38.857Z,98172.73
2017-07-30T21:01:06.325Z,98174.92
2017-07-30T21:03:33.789Z,98183.75
2017-07-30T21:06:01.275Z,98183.00
2017-07-30T21:08:28.719Z,98183.12
2017-07-30T21:10:56.192Z,98180.02
2017-07-30T21:13:23.647Z,98186.15
2017-07-30T21:15:51.121Z,98186.16
2017-07-30T21:18:18.576Z,98186.57
2017-07-30T21:20:46.048Z,98188.88
2017-07-30T21:23:13.496Z,98194.09
2017-07-30T21:25:40.977Z,98187.01
2017-07-30T21:28:08.445Z,98184.11
2017-07-30T21:30:36.118Z,98182.06
2017-07-30T21:33:03.561Z,98175.09
2017-07-30T21:35:31.009Z,98170.15
2017-07-30T21:37:58.477Z,98185.49
2017-07-30T21:40:25.927Z,98184.94
2017-07-30T21:42:53.741Z,98192.48
2017-07-30T21:45:21.181Z,98187.69
2017-07-30T21:47:48.625Z,98185.79
2017-07-30T21:50:16.102Z,98180.08
2017-07-30T21:52:43.548Z,98183.33
2017-07-30T21:55:11.025Z,98183.86
2017-07-30T21:57:38.477Z,98181.84
2017-07-30T22:00:05.953Z,98183.69
2017-07-30T22:02:33.402Z,98197.69
2017-07-30T22:05:00.852Z,98196.77
2017-07-30T22:07:28.510Z,98214.90
2017-07-30T22:09:55.958Z,98235.98
2017-07-30T22:12:23.412Z,98276.63
2017-07-30T22:14:50.891Z,98278.47
2017-07-30T22:17:18.696Z,98271.95
2017-07-30T22:19:46.145Z,98261.63
2017-07-30T22:22:13.632Z,98271.63
2017-07-30T22:24:41.494Z,98270.09
2017-07-30T22:27:08.942Z,98270.99
2017-07-30T22:29:36.386Z,98265.86
2017-07-30T22:32:03.857Z,98273.45
2017-07-30T22:34:31.301Z,98275.23
2017-07-30T22:36:58.789Z,98266.13
2017-07-30T22:39:26.237Z,98268.54
2017-07-30T22:41:53.697Z,98272.75
2017-07-30T22:44:21.169Z,98270.70
2017-07-30T22:46:48.637Z,98267.25
2017-07-30T22:49:16.093Z,98269.86
2017-07-30T22:51:43.541Z,98258.86
2017-07-30T22:54:11.009Z,98252.96
2017-07-30T22:56:38.457Z,98236.98
2017-07-30T22:59:05.905Z,98238.18
2017-07-30T23:01:33.639Z,98235.97
2017-07-30T23:04:01.082Z,98235.53
2017-07-30T23:06:28.538Z,98239.86
2017-07-30T23:08:56.016Z,98234.47
2017-07-30T23:11:23.466Z,98226.98
2017-07-30T23:13:50.917Z,98226.60
2017-07-30T23:16:18.396Z,98226.80
2017-07-30T23:18:45.856Z,98218.02
2017-07-30T23:21:13.337Z,98219.84
2017-07-30T23:23:40.777Z,98220.03
2017-07-30T23:26:08.232Z,98224.43
2017-07-30T23:28:35.703Z,98228.05
2017-07-30T23:31:03.165Z,98228.95
2017-07-30T23:33:30.636Z,98222.28
2017-07-30T23:35:58.105Z,98215.27
2017-07-30T23:38:25.578Z,98216.55
2017-07-30T23:40:53.037Z,98221.40
2017-07-30T23:43:20.518Z,98215.89
2017-07-30T23:45:47.961Z,98219.50
2017-07-30T23:48:15.414Z,98227.45
2017-07-30T23:50:42.901Z,98235.30
2017-07-30T23:53:10.351Z,98234.73
2017-07-30T23:55:37.788Z,98236.23
2017-07-30T23:58:05.252Z,98233.50
